sensor_id;sensor_type;location;lat;lon;timestamp;P1;durP1;ratioP1;P2;durP2;ratioP2
12681;SDS011;6405;59.208;18.216;2023-05-02T00:01:47;13.40;;;5.80;;
12681;SDS011;6405;59.208;18.216;2023-05-02T00:04:14;14.93;;;6.57;;
12681;SDS011;6405;59.208;18.216;2023-05-02T00:06:40;19.60;;;7.53;;
12681;SDS011;6405;59.208;18.216;2023-05-02T00:09:06;11.80;;;6.67;;
12681;SDS011;6405;59.208;18.216;2023-05-02T00:11:32;11.97;;;6.67;;
12681;SDS011;6405;59.208;18.216;2023-05-02T00:13:58;13.17;;;7.00;;
12681;SDS011;6405;59.208;18.216;2023-05-02T00:16:24;13.00;;;5.60;;
12681;SDS011;6405;59.208;18.216;2023-05-02T00:18:49;9.13;;;5.30;;
12681;SDS011;6405;59.208;18.216;2023-05-02T00:21:15;6.13;;;3.60;;
12681;SDS011;6405;59.208;18.216;2023-05-02T00:23:41;7.73;;;4.07;;
12681;SDS011;6405;59.208;18.216;2023-05-02T00:26:07;6.17;;;3.73;;
12681;SDS011;6405;59.208;18.216;2023-05-02T00:28:33;3.10;;;2.20;;
12681;SDS011;6405;59.208;18.216;2023-05-02T00:30:59;2.63;;;1.30;;
12681;SDS011;6405;59.208;18.216;2023-05-02T00:33:25;2.20;;;1.00;;
12681;SDS011;6405;59.208;18.216;2023-05-02T00:35:51;3.77;;;1.40;;
12681;SDS011;6405;59.208;18.216;2023-05-02T00:38:16;1.60;;;1.10;;
12681;SDS011;6405;59.208;18.216;2023-05-02T00:40:46;1.27;;;0.97;;
12681;SDS011;6405;59.208;18.216;2023-05-02T00:43:18;0.73;;;0.60;;
12681;SDS011;6405;59.208;18.216;2023-05-02T00:45:44;0.47;;;0.47;;
12681;SDS011;6405;59.208;18.216;2023-05-02T00:48:13;0.50;;;0.50;;
12681;SDS011;6405;59.208;18.216;2023-05-02T00:50:39;0.40;;;0.37;;
12681;SDS011;6405;59.208;18.216;2023-05-02T00:53:06;0.67;;;0.40;;
12681;SDS011;6405;59.208;18.216;2023-05-02T00:55:33;0.40;;;0.40;;
12681;SDS011;6405;59.208;18.216;2023-05-02T00:57:59;0.30;;;0.30;;
12681;SDS011;6405;59.208;18.216;2023-05-02T01:11:38;0.30;;;0.30;;
12681;SDS011;6405;59.208;18.216;2023-05-02T01:14:12;0.40;;;0.40;;
12681;SDS011;6405;59.208;18.216;2023-05-02T01:16:39;0.77;;;0.50;;
12681;SDS011;6405;59.208;18.216;2023-05-02T01:19:30;0.20;;;0.20;;
12681;SDS011;6405;59.208;18.216;2023-05-02T01:21:55;0.40;;;0.40;;
12681;SDS011;6405;59.208;18.216;2023-05-02T01:24:27;0.40;;;0.40;;
12681;SDS011;6405;59.208;18.216;2023-05-02T01:27:18;0.33;;;0.30;;
12681;SDS011;6405;59.208;18.216;2023-05-02T01:29:51;0.40;;;0.40;;
12681;SDS011;6405;59.208;18.216;2023-05-02T01:32:17;0.30;;;0.30;;
12681;SDS011;6405;59.208;18.216;2023-05-02T01:34:46;0.40;;;0.40;;
12681;SDS011;6405;59.208;18.216;2023-05-02T01:37:13;1.37;;;0.40;;
12681;SDS011;6405;59.208;18.216;2023-05-02T01:39:42;0.50;;;0.50;;
12681;SDS011;6405;59.208;18.216;2023-05-02T01:42:08;0.37;;;0.37;;
12681;SDS011;6405;59.208;18.216;2023-05-02T01:44:37;0.30;;;0.30;;
12681;SDS011;6405;59.208;18.216;2023-05-02T01:47:04;1.13;;;0.30;;
12681;SDS011;6405;59.208;18.216;2023-05-02T01:49:33;0.33;;;0.33;;
12681;SDS011;6405;59.208;18.216;2023-05-02T01:52:04;0.40;;;0.40;;
12681;SDS011;6405;59.208;18.216;2023-05-02T01:54:32;0.40;;;0.30;;
12681;SDS011;6405;59.208;18.216;2023-05-02T01:57:00;0.50;;;0.37;;
12681;SDS011;6405;59.208;18.216;2023-05-02T01:59:28;0.23;;;0.23;;
12681;SDS011;6405;59.208;18.216;2023-05-02T02:01:55;0.40;;;0.30;;
12681;SDS011;6405;59.208;18.216;2023-05-02T02:04:23;0.40;;;0.37;;
12681;SDS011;6405;59.208;18.216;2023-05-02T02:06:52;0.43;;;0.43;;
12681;SDS011;6405;59.208;18.216;2023-05-02T02:09:21;0.40;;;0.40;;
12681;SDS011;6405;59.208;18.216;2023-05-02T02:12:07;0.83;;;0.60;;
12681;SDS011;6405;59.208;18.216;2023-05-02T02:18:00;0.30;;;0.30;;
12681;SDS011;6405;59.208;18.216;2023-05-02T02:20:29;0.30;;;0.30;;
12681;SDS011;6405;59.208;18.216;2023-05-02T02:22:56;0.60;;;0.43;;
12681;SDS011;6405;59.208;18.216;2023-05-02T02:25:24;0.40;;;0.40;;
12681;SDS011;6405;59.208;18.216;2023-05-02T02:27:51;0.40;;;0.40;;
12681;SDS011;6405;59.208;18.216;2023-05-02T02:30:17;0.30;;;0.30;;
12681;SDS011;6405;59.208;18.216;2023-05-02T02:32:43;1.50;;;0.47;;
12681;SDS011;6405;59.208;18.216;2023-05-02T02:35:09;0.20;;;0.20;;
12681;SDS011;6405;59.208;18.216;2023-05-02T02:37:40;0.73;;;0.50;;
12681;SDS011;6405;59.208;18.216;2023-05-02T02:40:27;0.30;;;0.20;;
12681;SDS011;6405;59.208;18.216;2023-05-02T02:45:47;0.50;;;0.40;;
12681;SDS011;6405;59.208;18.216;2023-05-02T02:48:30;0.43;;;0.43;;
12681;SDS011;6405;59.208;18.216;2023-05-02T02:53:59;0.60;;;0.60;;
12681;SDS011;6405;59.208;18.216;2023-05-02T02:56:41;0.73;;;0.60;;
12681;SDS011;6405;59.208;18.216;2023-05-02T02:59:45;0.33;;;0.33;;
12681;SDS011;6405;59.208;18.216;2023-05-02T03:02:08;0.50;;;0.50;;
12681;SDS011;6405;59.208;18.216;2023-05-02T03:04:42;0.60;;;0.50;;
12681;SDS011;6405;59.208;18.216;2023-05-02T03:07:08;0.57;;;0.57;;
12681;SDS011;6405;59.208;18.216;2023-05-02T03:09:44;0.70;;;0.57;;
12681;SDS011;6405;59.208;18.216;2023-05-02T03:12:11;0.50;;;0.50;;
12681;SDS011;6405;59.208;18.216;2023-05-02T03:14:37;1.63;;;0.60;;
12681;SDS011;6405;59.208;18.216;2023-05-02T03:17:04;0.80;;;0.80;;
12681;SDS011;6405;59.208;18.216;2023-05-02T03:19:29;0.70;;;0.70;;
12681;SDS011;6405;59.208;18.216;2023-05-02T03:21:55;0.70;;;0.70;;
12681;SDS011;6405;59.208;18.216;2023-05-02T03:24:21;1.17;;;0.77;;
12681;SDS011;6405;59.208;18.216;2023-05-02T03:26:47;0.73;;;0.60;;
12681;SDS011;6405;59.208;18.216;2023-05-02T03:29:13;1.03;;;0.70;;
12681;SDS011;6405;59.208;18.216;2023-05-02T03:31:39;0.53;;;0.50;;
12681;SDS011;6405;59.208;18.216;2023-05-02T03:34:04;0.40;;;0.40;;
12681;SDS011;6405;59.208;18.216;2023-05-02T03:36:30;0.70;;;0.50;;
12681;SDS011;6405;59.208;18.216;2023-05-02T03:38:55;0.40;;;0.40;;
12681;SDS011;6405;59.208;18.216;2023-05-02T03:41:21;1.13;;;0.50;;
12681;SDS011;6405;59.208;18.216;2023-05-02T03:43:48;1.40;;;0.40;;
12681;SDS011;6405;59.208;18.216;2023-05-02T03:46:14;1.40;;;0.30;;
12681;SDS011;6405;59.208;18.216;2023-05-02T03:48:40;2.00;;;0.50;;
12681;SDS011;6405;59.208;18.216;2023-05-02T03:51:06;0.43;;;0.27;;
12681;SDS011;6405;59.208;18.216;2023-05-02T03:53:33;0.50;;;0.33;;
12681;SDS011;6405;59.208;18.216;2023-05-02T03:55:59;0.97;;;0.50;;
12681;SDS011;6405;59.208;18.216;2023-05-02T03:58:25;0.40;;;0.37;;
12681;SDS011;6405;59.208;18.216;2023-05-02T04:00:51;0.47;;;0.40;;
12681;SDS011;6405;59.208;18.216;2023-05-02T04:03:17;0.50;;;0.33;;
12681;SDS011;6405;59.208;18.216;2023-05-02T04:05:43;0.50;;;0.30;;
12681;SDS011;6405;59.208;18.216;2023-05-02T04:08:10;0.37;;;0.30;;
12681;SDS011;6405;59.208;18.216;2023-05-02T04:10:36;0.60;;;0.40;;
12681;SDS011;6405;59.208;18.216;2023-05-02T04:13:02;0.47;;;0.40;;
12681;SDS011;6405;59.208;18.216;2023-05-02T04:15:28;1.07;;;0.30;;
12681;SDS011;6405;59.208;18.216;2023-05-02T04:17:56;0.30;;;0.30;;
12681;SDS011;6405;59.208;18.216;2023-05-02T04:20:23;0.37;;;0.33;;
12681;SDS011;6405;59.208;18.216;2023-05-02T04:22:49;0.33;;;0.33;;
12681;SDS011;6405;59.208;18.216;2023-05-02T04:25:15;0.40;;;0.40;;
12681;SDS011;6405;59.208;18.216;2023-05-02T04:27:41;0.20;;;0.20;;
12681;SDS011;6405;59.208;18.216;2023-05-02T04:30:07;0.30;;;0.30;;
12681;SDS011;6405;59.208;18.216;2023-05-02T04:32:34;1.93;;;0.60;;
12681;SDS011;6405;59.208;18.216;2023-05-02T04:35:00;0.50;;;0.30;;
12681;SDS011;6405;59.208;18.216;2023-05-02T04:37:26;0.40;;;0.40;;
12681;SDS011;6405;59.208;18.216;2023-05-02T04:39:52;0.40;;;0.40;;
12681;SDS011;6405;59.208;18.216;2023-05-02T04:42:17;1.60;;;0.50;;
12681;SDS011;6405;59.208;18.216;2023-05-02T04:44:43;0.30;;;0.30;;
12681;SDS011;6405;59.208;18.216;2023-05-02T04:47:09;0.40;;;0.40;;
12681;SDS011;6405;59.208;18.216;2023-05-02T04:49:34;0.50;;;0.50;;
12681;SDS011;6405;59.208;18.216;2023-05-02T04:52:00;1.43;;;0.50;;
12681;SDS011;6405;59.208;18.216;2023-05-02T04:54:26;0.60;;;0.50;;
12681;SDS011;6405;59.208;18.216;2023-05-02T04:56:52;0.40;;;0.40;;
12681;SDS011;6405;59.208;18.216;2023-05-02T04:59:17;0.43;;;0.43;;
12681;SDS011;6405;59.208;18.216;2023-05-02T05:01:43;0.63;;;0.63;;
12681;SDS011;6405;59.208;18.216;2023-05-02T05:04:09;1.27;;;0.70;;
12681;SDS011;6405;59.208;18.216;2023-05-02T05:06:35;0.97;;;0.70;;
12681;SDS011;6405;59.208;18.216;2023-05-02T05:09:00;0.70;;;0.70;;
12681;SDS011;6405;59.208;18.216;2023-05-02T05:11:26;0.80;;;0.70;;
12681;SDS011;6405;59.208;18.216;2023-05-02T05:13:52;2.10;;;0.60;;
12681;SDS011;6405;59.208;18.216;2023-05-02T05:16:17;0.60;;;0.50;;
12681;SDS011;6405;59.208;18.216;2023-05-02T05:18:43;1.30;;;0.80;;
12681;SDS011;6405;59.208;18.216;2023-05-02T05:21:09;0.70;;;0.70;;
12681;SDS011;6405;59.208;18.216;2023-05-02T05:23:35;0.60;;;0.60;;
12681;SDS011;6405;59.208;18.216;2023-05-02T05:26:11;1.03;;;0.90;;
12681;SDS011;6405;59.208;18.216;2023-05-02T05:28:41;1.10;;;0.90;;
12681;SDS011;6405;59.208;18.216;2023-05-02T05:31:08;2.63;;;1.07;;
12681;SDS011;6405;59.208;18.216;2023-05-02T05:33:37;1.40;;;1.10;;
12681;SDS011;6405;59.208;18.216;2023-05-02T05:36:04;1.53;;;1.00;;
12681;SDS011;6405;59.208;18.216;2023-05-02T05:38:34;0.90;;;0.90;;
12681;SDS011;6405;59.208;18.216;2023-05-02T05:41:00;0.93;;;0.77;;
12681;SDS011;6405;59.208;18.216;2023-05-02T05:43:26;1.37;;;0.87;;
12681;SDS011;6405;59.208;18.216;2023-05-02T05:45:53;1.10;;;1.00;;
12681;SDS011;6405;59.208;18.216;2023-05-02T05:48:19;1.03;;;0.93;;
12681;SDS011;6405;59.208;18.216;2023-05-02T05:50:45;3.03;;;1.20;;
12681;SDS011;6405;59.208;18.216;2023-05-02T05:53:11;1.17;;;1.07;;
12681;SDS011;6405;59.208;18.216;2023-05-02T05:55:37;1.40;;;1.20;;
12681;SDS011;6405;59.208;18.216;2023-05-02T05:58:03;1.80;;;1.30;;
12681;SDS011;6405;59.208;18.216;2023-05-02T06:00:30;1.50;;;1.10;;
12681;SDS011;6405;59.208;18.216;2023-05-02T06:02:59;1.47;;;1.30;;
12681;SDS011;6405;59.208;18.216;2023-05-02T06:05:25;1.20;;;0.93;;
12681;SDS011;6405;59.208;18.216;2023-05-02T06:07:51;1.57;;;1.20;;
12681;SDS011;6405;59.208;18.216;2023-05-02T06:10:16;1.20;;;1.10;;
12681;SDS011;6405;59.208;18.216;2023-05-02T06:12:42;1.90;;;1.30;;
12681;SDS011;6405;59.208;18.216;2023-05-02T06:15:08;1.87;;;1.37;;
12681;SDS011;6405;59.208;18.216;2023-05-02T06:17:34;1.60;;;1.40;;
12681;SDS011;6405;59.208;18.216;2023-05-02T06:19:59;1.50;;;1.30;;
12681;SDS011;6405;59.208;18.216;2023-05-02T06:22:25;1.40;;;1.30;;
12681;SDS011;6405;59.208;18.216;2023-05-02T06:24:51;1.77;;;1.53;;
12681;SDS011;6405;59.208;18.216;2023-05-02T06:27:17;2.53;;;1.10;;
12681;SDS011;6405;59.208;18.216;2023-05-02T06:29:42;1.53;;;1.23;;
12681;SDS011;6405;59.208;18.216;2023-05-02T06:32:08;2.37;;;1.47;;
12681;SDS011;6405;59.208;18.216;2023-05-02T06:34:34;1.47;;;1.33;;
12681;SDS011;6405;59.208;18.216;2023-05-02T06:37:00;1.70;;;1.40;;
12681;SDS011;6405;59.208;18.216;2023-05-02T06:39:25;1.83;;;1.63;;
12681;SDS011;6405;59.208;18.216;2023-05-02T06:42:00;2.07;;;1.60;;
12681;SDS011;6405;59.208;18.216;2023-05-02T06:44:26;3.33;;;1.40;;
12681;SDS011;6405;59.208;18.216;2023-05-02T06:46:51;1.87;;;1.30;;
12681;SDS011;6405;59.208;18.216;2023-05-02T06:49:17;1.43;;;1.30;;
12681;SDS011;6405;59.208;18.216;2023-05-02T06:51:43;1.97;;;1.30;;
12681;SDS011;6405;59.208;18.216;2023-05-02T06:54:08;1.13;;;1.03;;
12681;SDS011;6405;59.208;18.216;2023-05-02T06:56:34;1.77;;;1.00;;
12681;SDS011;6405;59.208;18.216;2023-05-02T06:59:00;1.13;;;1.03;;
12681;SDS011;6405;59.208;18.216;2023-05-02T07:01:26;1.43;;;1.20;;
12681;SDS011;6405;59.208;18.216;2023-05-02T07:03:51;1.97;;;1.60;;
12681;SDS011;6405;59.208;18.216;2023-05-02T07:06:18;3.20;;;1.30;;
12681;SDS011;6405;59.208;18.216;2023-05-02T07:08:44;1.53;;;1.20;;
12681;SDS011;6405;59.208;18.216;2023-05-02T07:11:10;2.00;;;1.37;;
12681;SDS011;6405;59.208;18.216;2023-05-02T07:13:35;2.33;;;1.27;;
12681;SDS011;6405;59.208;18.216;2023-05-02T07:16:01;1.10;;;1.00;;
12681;SDS011;6405;59.208;18.216;2023-05-02T07:18:26;1.87;;;1.07;;
12681;SDS011;6405;59.208;18.216;2023-05-02T07:20:52;1.27;;;1.10;;
12681;SDS011;6405;59.208;18.216;2023-05-02T07:23:19;2.03;;;1.17;;
12681;SDS011;6405;59.208;18.216;2023-05-02T07:25:46;3.57;;;1.20;;
12681;SDS011;6405;59.208;18.216;2023-05-02T07:28:12;1.90;;;1.30;;
12681;SDS011;6405;59.208;18.216;2023-05-02T07:30:37;1.17;;;1.00;;
12681;SDS011;6405;59.208;18.216;2023-05-02T07:33:03;2.20;;;1.20;;
12681;SDS011;6405;59.208;18.216;2023-05-02T07:35:29;1.50;;;1.00;;
12681;SDS011;6405;59.208;18.216;2023-05-02T07:37:54;1.70;;;1.20;;
12681;SDS011;6405;59.208;18.216;2023-05-02T07:40:20;1.20;;;1.10;;
12681;SDS011;6405;59.208;18.216;2023-05-02T07:42:47;2.37;;;1.10;;
12681;SDS011;6405;59.208;18.216;2023-05-02T07:45:13;1.73;;;1.30;;
12681;SDS011;6405;59.208;18.216;2023-05-02T07:47:38;1.40;;;0.90;;
12681;SDS011;6405;59.208;18.216;2023-05-02T07:50:04;1.50;;;1.23;;
12681;SDS011;6405;59.208;18.216;2023-05-02T07:52:30;1.50;;;1.40;;
12681;SDS011;6405;59.208;18.216;2023-05-02T07:54:56;1.07;;;0.90;;
12681;SDS011;6405;59.208;18.216;2023-05-02T07:57:22;1.13;;;0.93;;
12681;SDS011;6405;59.208;18.216;2023-05-02T07:59:48;0.93;;;0.87;;
12681;SDS011;6405;59.208;18.216;2023-05-02T08:02:13;2.00;;;1.13;;
12681;SDS011;6405;59.208;18.216;2023-05-02T08:04:41;1.10;;;0.93;;
12681;SDS011;6405;59.208;18.216;2023-05-02T08:07:07;1.17;;;1.00;;
12681;SDS011;6405;59.208;18.216;2023-05-02T08:09:33;1.07;;;0.87;;
12681;SDS011;6405;59.208;18.216;2023-05-02T08:11:58;1.20;;;0.90;;
12681;SDS011;6405;59.208;18.216;2023-05-02T08:14:26;1.00;;;0.60;;
12681;SDS011;6405;59.208;18.216;2023-05-02T08:16:52;0.80;;;0.60;;
12681;SDS011;6405;59.208;18.216;2023-05-02T08:19:17;1.03;;;0.90;;
12681;SDS011;6405;59.208;18.216;2023-05-02T08:21:43;1.33;;;0.93;;
12681;SDS011;6405;59.208;18.216;2023-05-02T08:24:08;1.10;;;1.00;;
12681;SDS011;6405;59.208;18.216;2023-05-02T08:26:34;1.03;;;0.90;;
12681;SDS011;6405;59.208;18.216;2023-05-02T08:29:00;1.30;;;0.80;;
12681;SDS011;6405;59.208;18.216;2023-05-02T08:31:27;1.90;;;0.90;;
12681;SDS011;6405;59.208;18.216;2023-05-02T08:33:52;1.00;;;0.80;;
12681;SDS011;6405;59.208;18.216;2023-05-02T08:36:18;1.13;;;0.80;;
12681;SDS011;6405;59.208;18.216;2023-05-02T08:38:44;1.30;;;0.63;;
12681;SDS011;6405;59.208;18.216;2023-05-02T08:41:14;0.80;;;0.70;;
12681;SDS011;6405;59.208;18.216;2023-05-02T08:43:43;1.13;;;0.70;;
12681;SDS011;6405;59.208;18.216;2023-05-02T08:46:13;1.10;;;0.70;;
12681;SDS011;6405;59.208;18.216;2023-05-02T08:48:40;2.07;;;0.77;;
12681;SDS011;6405;59.208;18.216;2023-05-02T08:51:08;2.07;;;0.83;;
12681;SDS011;6405;59.208;18.216;2023-05-02T08:53:35;1.07;;;0.80;;
12681;SDS011;6405;59.208;18.216;2023-05-02T08:56:02;2.13;;;0.83;;
12681;SDS011;6405;59.208;18.216;2023-05-02T08:58:28;1.23;;;0.60;;
12681;SDS011;6405;59.208;18.216;2023-05-02T09:00:57;1.20;;;0.93;;
12681;SDS011;6405;59.208;18.216;2023-05-02T09:06:03;0.73;;;0.67;;
12681;SDS011;6405;59.208;18.216;2023-05-02T09:08:29;1.00;;;0.90;;
12681;SDS011;6405;59.208;18.216;2023-05-02T09:10:54;1.77;;;0.90;;
12681;SDS011;6405;59.208;18.216;2023-05-02T09:13:27;0.87;;;0.70;;
12681;SDS011;6405;59.208;18.216;2023-05-02T09:16:10;1.00;;;0.90;;
12681;SDS011;6405;59.208;18.216;2023-05-02T09:18:41;0.87;;;0.73;;
12681;SDS011;6405;59.208;18.216;2023-05-02T09:21:15;1.07;;;0.60;;
12681;SDS011;6405;59.208;18.216;2023-05-02T09:23:42;1.60;;;1.00;;
12681;SDS011;6405;59.208;18.216;2023-05-02T09:28:50;1.37;;;1.23;;
12681;SDS011;6405;59.208;18.216;2023-05-02T09:31:17;1.33;;;1.10;;
12681;SDS011;6405;59.208;18.216;2023-05-02T09:33:44;1.53;;;1.00;;
12681;SDS011;6405;59.208;18.216;2023-05-02T09:36:11;1.53;;;0.90;;
12681;SDS011;6405;59.208;18.216;2023-05-02T09:38:42;1.63;;;1.00;;
12681;SDS011;6405;59.208;18.216;2023-05-02T09:41:09;2.17;;;1.33;;
12681;SDS011;6405;59.208;18.216;2023-05-02T09:43:35;1.67;;;1.30;;
12681;SDS011;6405;59.208;18.216;2023-05-02T09:46:05;2.47;;;1.00;;
12681;SDS011;6405;59.208;18.216;2023-05-02T09:51:20;2.67;;;1.20;;
12681;SDS011;6405;59.208;18.216;2023-05-02T09:53:47;1.20;;;1.03;;
12681;SDS011;6405;59.208;18.216;2023-05-02T09:56:13;1.80;;;1.50;;
12681;SDS011;6405;59.208;18.216;2023-05-02T09:58:39;1.23;;;1.00;;
12681;SDS011;6405;59.208;18.216;2023-05-02T10:01:05;0.97;;;0.77;;
12681;SDS011;6405;59.208;18.216;2023-05-02T10:03:31;1.10;;;1.00;;
12681;SDS011;6405;59.208;18.216;2023-05-02T10:06:01;1.10;;;0.80;;
12681;SDS011;6405;59.208;18.216;2023-05-02T10:08:29;1.53;;;1.10;;
12681;SDS011;6405;59.208;18.216;2023-05-02T10:10:58;0.97;;;0.87;;
12681;SDS011;6405;59.208;18.216;2023-05-02T10:13:25;1.93;;;0.90;;
12681;SDS011;6405;59.208;18.216;2023-05-02T10:15:59;3.43;;;1.00;;
12681;SDS011;6405;59.208;18.216;2023-05-02T10:18:44;1.63;;;1.07;;
12681;SDS011;6405;59.208;18.216;2023-05-02T10:21:32;1.17;;;0.90;;
12681;SDS011;6405;59.208;18.216;2023-05-02T10:23:59;1.00;;;0.70;;
12681;SDS011;6405;59.208;18.216;2023-05-02T10:26:28;0.93;;;0.87;;
12681;SDS011;6405;59.208;18.216;2023-05-02T10:28:55;1.13;;;0.90;;
12681;SDS011;6405;59.208;18.216;2023-05-02T10:31:21;1.20;;;1.03;;
12681;SDS011;6405;59.208;18.216;2023-05-02T10:33:49;2.60;;;1.03;;
12681;SDS011;6405;59.208;18.216;2023-05-02T10:36:19;1.07;;;0.97;;
12681;SDS011;6405;59.208;18.216;2023-05-02T10:38:46;2.60;;;1.00;;
12681;SDS011;6405;59.208;18.216;2023-05-02T10:43:40;1.30;;;1.10;;
12681;SDS011;6405;59.208;18.216;2023-05-02T10:49:01;4.03;;;1.00;;
12681;SDS011;6405;59.208;18.216;2023-05-02T10:51:32;1.10;;;0.80;;
12681;SDS011;6405;59.208;18.216;2023-05-02T10:54:18;1.23;;;0.80;;
12681;SDS011;6405;59.208;18.216;2023-05-02T10:59:34;1.70;;;0.97;;
12681;SDS011;6405;59.208;18.216;2023-05-02T11:02:04;1.37;;;0.80;;
12681;SDS011;6405;59.208;18.216;2023-05-02T11:05:04;1.20;;;0.97;;
12681;SDS011;6405;59.208;18.216;2023-05-02T11:07:33;1.70;;;1.10;;
12681;SDS011;6405;59.208;18.216;2023-05-02T11:18:11;3.33;;;1.27;;
12681;SDS011;6405;59.208;18.216;2023-05-02T11:20:40;1.40;;;1.20;;
12681;SDS011;6405;59.208;18.216;2023-05-02T11:25:40;2.77;;;1.47;;
12681;SDS011;6405;59.208;18.216;2023-05-02T11:28:37;2.37;;;1.00;;
12681;SDS011;6405;59.208;18.216;2023-05-02T11:31:06;0.93;;;0.70;;
12681;SDS011;6405;59.208;18.216;2023-05-02T11:33:34;2.27;;;1.13;;
12681;SDS011;6405;59.208;18.216;2023-05-02T11:36:00;1.27;;;0.90;;
12681;SDS011;6405;59.208;18.216;2023-05-02T11:38:33;1.80;;;0.97;;
12681;SDS011;6405;59.208;18.216;2023-05-02T11:41:00;1.57;;;1.00;;
12681;SDS011;6405;59.208;18.216;2023-05-02T11:43:28;0.73;;;0.70;;
12681;SDS011;6405;59.208;18.216;2023-05-02T11:45:54;1.20;;;0.97;;
12681;SDS011;6405;59.208;18.216;2023-05-02T11:48:21;2.93;;;1.20;;
12681;SDS011;6405;59.208;18.216;2023-05-02T11:50:49;1.63;;;1.00;;
12681;SDS011;6405;59.208;18.216;2023-05-02T11:53:17;3.93;;;1.40;;
12681;SDS011;6405;59.208;18.216;2023-05-02T11:58:33;2.07;;;0.80;;
12681;SDS011;6405;59.208;18.216;2023-05-02T12:01:09;1.20;;;0.90;;
12681;SDS011;6405;59.208;18.216;2023-05-02T12:03:39;1.00;;;0.70;;
12681;SDS011;6405;59.208;18.216;2023-05-02T12:06:11;2.00;;;1.00;;
12681;SDS011;6405;59.208;18.216;2023-05-02T12:08:42;0.90;;;0.83;;
12681;SDS011;6405;59.208;18.216;2023-05-02T12:11:08;0.87;;;0.73;;
12681;SDS011;6405;59.208;18.216;2023-05-02T12:13:43;1.30;;;0.90;;
12681;SDS011;6405;59.208;18.216;2023-05-02T12:16:12;1.00;;;0.90;;
12681;SDS011;6405;59.208;18.216;2023-05-02T12:18:38;2.83;;;0.87;;
12681;SDS011;6405;59.208;18.216;2023-05-02T12:21:04;1.87;;;0.70;;
12681;SDS011;6405;59.208;18.216;2023-05-02T12:23:31;2.87;;;0.90;;
12681;SDS011;6405;59.208;18.216;2023-05-02T12:25:57;2.13;;;0.80;;
12681;SDS011;6405;59.208;18.216;2023-05-02T12:28:23;1.10;;;0.80;;
12681;SDS011;6405;59.208;18.216;2023-05-02T12:30:49;1.37;;;0.87;;
12681;SDS011;6405;59.208;18.216;2023-05-02T12:33:15;0.80;;;0.60;;
12681;SDS011;6405;59.208;18.216;2023-05-02T12:35:41;0.90;;;0.63;;
12681;SDS011;6405;59.208;18.216;2023-05-02T12:40:45;1.20;;;0.60;;
12681;SDS011;6405;59.208;18.216;2023-05-02T12:43:12;0.60;;;0.60;;
12681;SDS011;6405;59.208;18.216;2023-05-02T12:45:38;0.67;;;0.60;;
12681;SDS011;6405;59.208;18.216;2023-05-02T12:48:23;1.63;;;0.60;;
12681;SDS011;6405;59.208;18.216;2023-05-02T12:50:50;0.80;;;0.50;;
12681;SDS011;6405;59.208;18.216;2023-05-02T12:53:32;0.53;;;0.53;;
12681;SDS011;6405;59.208;18.216;2023-05-02T12:56:06;0.30;;;0.30;;
12681;SDS011;6405;59.208;18.216;2023-05-02T12:58:45;0.73;;;0.60;;
12681;SDS011;6405;59.208;18.216;2023-05-02T13:01:12;0.70;;;0.60;;
12681;SDS011;6405;59.208;18.216;2023-05-02T13:03:40;1.37;;;0.60;;
12681;SDS011;6405;59.208;18.216;2023-05-02T13:06:06;3.57;;;0.80;;
12681;SDS011;6405;59.208;18.216;2023-05-02T13:08:33;1.40;;;0.50;;
12681;SDS011;6405;59.208;18.216;2023-05-02T13:11:00;0.50;;;0.50;;
12681;SDS011;6405;59.208;18.216;2023-05-02T13:13:26;0.63;;;0.60;;
12681;SDS011;6405;59.208;18.216;2023-05-02T13:15:53;1.47;;;0.57;;
12681;SDS011;6405;59.208;18.216;2023-05-02T13:18:19;0.83;;;0.60;;
12681;SDS011;6405;59.208;18.216;2023-05-02T13:20:44;1.43;;;0.70;;
12681;SDS011;6405;59.208;18.216;2023-05-02T13:23:10;1.73;;;0.70;;
12681;SDS011;6405;59.208;18.216;2023-05-02T13:25:36;1.13;;;0.60;;
12681;SDS011;6405;59.208;18.216;2023-05-02T13:28:02;0.70;;;0.67;;
12681;SDS011;6405;59.208;18.216;2023-05-02T13:30:28;1.10;;;0.50;;
12681;SDS011;6405;59.208;18.216;2023-05-02T13:32:54;1.57;;;0.70;;
12681;SDS011;6405;59.208;18.216;2023-05-02T13:35:22;1.60;;;0.60;;
12681;SDS011;6405;59.208;18.216;2023-05-02T13:37:48;0.83;;;0.50;;
12681;SDS011;6405;59.208;18.216;2023-05-02T13:40:15;0.63;;;0.50;;
12681;SDS011;6405;59.208;18.216;2023-05-02T13:42:40;0.50;;;0.50;;
12681;SDS011;6405;59.208;18.216;2023-05-02T13:45:06;1.03;;;0.50;;
12681;SDS011;6405;59.208;18.216;2023-05-02T13:47:32;0.57;;;0.40;;
12681;SDS011;6405;59.208;18.216;2023-05-02T13:49:58;0.40;;;0.40;;
12681;SDS011;6405;59.208;18.216;2023-05-02T13:52:23;0.67;;;0.50;;
12681;SDS011;6405;59.208;18.216;2023-05-02T13:54:49;2.33;;;0.50;;
12681;SDS011;6405;59.208;18.216;2023-05-02T13:57:15;4.83;;;0.40;;
12681;SDS011;6405;59.208;18.216;2023-05-02T13:59:40;2.67;;;0.50;;
12681;SDS011;6405;59.208;18.216;2023-05-02T14:02:06;1.67;;;0.63;;
12681;SDS011;6405;59.208;18.216;2023-05-02T14:04:32;0.77;;;0.40;;
12681;SDS011;6405;59.208;18.216;2023-05-02T14:06:57;1.80;;;0.60;;
12681;SDS011;6405;59.208;18.216;2023-05-02T14:09:23;1.17;;;0.50;;
12681;SDS011;6405;59.208;18.216;2023-05-02T14:11:49;1.17;;;0.40;;
12681;SDS011;6405;59.208;18.216;2023-05-02T14:14:15;0.60;;;0.50;;
12681;SDS011;6405;59.208;18.216;2023-05-02T14:16:41;0.80;;;0.60;;
12681;SDS011;6405;59.208;18.216;2023-05-02T14:19:06;0.70;;;0.47;;
12681;SDS011;6405;59.208;18.216;2023-05-02T14:21:32;0.20;;;0.20;;
12681;SDS011;6405;59.208;18.216;2023-05-02T14:23:58;0.47;;;0.30;;
12681;SDS011;6405;59.208;18.216;2023-05-02T14:26:24;0.40;;;0.40;;
12681;SDS011;6405;59.208;18.216;2023-05-02T14:28:50;0.40;;;0.40;;
12681;SDS011;6405;59.208;18.216;2023-05-02T14:31:16;1.33;;;0.60;;
12681;SDS011;6405;59.208;18.216;2023-05-02T14:33:42;0.40;;;0.40;;
12681;SDS011;6405;59.208;18.216;2023-05-02T14:36:08;1.10;;;0.60;;
12681;SDS011;6405;59.208;18.216;2023-05-02T14:38:33;1.30;;;0.67;;
12681;SDS011;6405;59.208;18.216;2023-05-02T14:40:59;0.97;;;0.40;;
12681;SDS011;6405;59.208;18.216;2023-05-02T14:43:26;1.90;;;0.70;;
12681;SDS011;6405;59.208;18.216;2023-05-02T14:45:52;0.60;;;0.40;;
12681;SDS011;6405;59.208;18.216;2023-05-02T14:48:18;1.07;;;0.30;;
12681;SDS011;6405;59.208;18.216;2023-05-02T14:50:44;0.70;;;0.67;;
12681;SDS011;6405;59.208;18.216;2023-05-02T14:53:09;1.20;;;0.70;;
12681;SDS011;6405;59.208;18.216;2023-05-02T14:55:38;0.67;;;0.30;;
12681;SDS011;6405;59.208;18.216;2023-05-02T14:58:05;1.33;;;0.50;;
12681;SDS011;6405;59.208;18.216;2023-05-02T15:00:35;0.77;;;0.33;;
12681;SDS011;6405;59.208;18.216;2023-05-02T15:03:04;1.37;;;0.50;;
12681;SDS011;6405;59.208;18.216;2023-05-02T15:05:30;0.40;;;0.40;;
12681;SDS011;6405;59.208;18.216;2023-05-02T15:07:56;0.40;;;0.40;;
12681;SDS011;6405;59.208;18.216;2023-05-02T15:10:22;0.70;;;0.40;;
12681;SDS011;6405;59.208;18.216;2023-05-02T15:12:47;0.40;;;0.40;;
12681;SDS011;6405;59.208;18.216;2023-05-02T15:15:15;0.43;;;0.30;;
12681;SDS011;6405;59.208;18.216;2023-05-02T15:17:42;0.70;;;0.33;;
12681;SDS011;6405;59.208;18.216;2023-05-02T15:20:08;0.30;;;0.30;;
12681;SDS011;6405;59.208;18.216;2023-05-02T15:22:34;0.30;;;0.30;;
12681;SDS011;6405;59.208;18.216;2023-05-02T15:25:00;0.40;;;0.40;;
12681;SDS011;6405;59.208;18.216;2023-05-02T15:27:25;1.37;;;0.37;;
12681;SDS011;6405;59.208;18.216;2023-05-02T15:29:51;0.70;;;0.40;;
12681;SDS011;6405;59.208;18.216;2023-05-02T15:32:17;0.40;;;0.33;;
12681;SDS011;6405;59.208;18.216;2023-05-02T15:34:42;0.60;;;0.40;;
12681;SDS011;6405;59.208;18.216;2023-05-02T15:37:08;0.87;;;0.50;;
12681;SDS011;6405;59.208;18.216;2023-05-02T15:39:34;0.30;;;0.30;;
12681;SDS011;6405;59.208;18.216;2023-05-02T15:42:03;0.43;;;0.40;;
12681;SDS011;6405;59.208;18.216;2023-05-02T15:44:31;1.80;;;0.43;;